sensor_id;sensor_type;location;lat;lon;timestamp;temperature;humidity
2439;DHT22;14509;47.992;7.848;2024-02-26T00:01:26;15.60;37.10
2439;DHT22;14509;47.992;7.848;2024-02-26T00:03:28;15.50;37.50
2439;DHT22;14509;47.992;7.848;2024-02-26T00:05:29;15.50;38.20
2439;DHT22;14509;47.992;7.848;2024-02-26T00:07:32;15.50;38.90
2439;DHT22;14509;47.992;7.848;2024-02-26T00:09:33;15.40;39.30
2439;DHT22;14509;47.992;7.848;2024-02-26T00:11:37;15.40;39.90
2439;DHT22;14509;47.992;7.848;2024-02-26T00:13:39;15.40;40.30
2439;DHT22;14509;47.992;7.848;2024-02-26T00:15:42;15.40;40.60
2439;DHT22;14509;47.992;7.848;2024-02-26T00:17:44;15.40;41.10
2439;DHT22;14509;47.992;7.848;2024-02-26T00:19:46;15.40;41.00
2439;DHT22;14509;47.992;7.848;2024-02-26T00:21:47;15.30;41.20
2439;DHT22;14509;47.992;7.848;2024-02-26T00:23:49;15.30;42.10
2439;DHT22;14509;47.992;7.848;2024-02-26T00:25:51;15.30;42.00
2439;DHT22;14509;47.992;7.848;2024-02-26T00:27:53;15.30;42.10
2439;DHT22;14509;47.992;7.848;2024-02-26T00:29:55;15.30;41.80
2439;DHT22;14509;47.992;7.848;2024-02-26T00:31:58;15.30;42.00
2439;DHT22;14509;47.992;7.848;2024-02-26T00:34:00;15.20;42.60
2439;DHT22;14509;47.992;7.848;2024-02-26T00:36:02;15.20;42.80
2439;DHT22;14509;47.992;7.848;2024-02-26T00:38:04;15.20;42.80
2439;DHT22;14509;47.992;7.848;2024-02-26T00:40:07;15.10;43.00
2439;DHT22;14509;47.992;7.848;2024-02-26T00:42:10;15.10;42.40
2439;DHT22;14509;47.992;7.848;2024-02-26T00:44:12;15.00;41.70
2439;DHT22;14509;47.992;7.848;2024-02-26T00:46:13;15.00;41.80
2439;DHT22;14509;47.992;7.848;2024-02-26T00:48:16;14.90;41.90
2439;DHT22;14509;47.992;7.848;2024-02-26T00:50:17;14.90;41.90
2439;DHT22;14509;47.992;7.848;2024-02-26T00:52:19;14.90;42.30
2439;DHT22;14509;47.992;7.848;2024-02-26T00:54:21;14.90;42.20
2439;DHT22;14509;47.992;7.848;2024-02-26T00:56:22;15.00;42.80
2439;DHT22;14509;47.992;7.848;2024-02-26T00:58:24;15.00;42.10
2439;DHT22;14509;47.992;7.848;2024-02-26T01:00:26;15.00;41.90
2439;DHT22;14509;47.992;7.848;2024-02-26T01:02:28;15.00;41.60
2439;DHT22;14509;47.992;7.848;2024-02-26T01:04:31;15.00;41.40
2439;DHT22;14509;47.992;7.848;2024-02-26T01:06:34;15.00;41.50
2439;DHT22;14509;47.992;7.848;2024-02-26T01:08:36;15.10;41.50
2439;DHT22;14509;47.992;7.848;2024-02-26T01:10:38;15.10;41.20
2439;DHT22;14509;47.992;7.848;2024-02-26T01:12:40;15.10;41.50
2439;DHT22;14509;47.992;7.848;2024-02-26T01:14:42;15.10;41.90
2439;DHT22;14509;47.992;7.848;2024-02-26T01:16:42;15.10;42.30
2439;DHT22;14509;47.992;7.848;2024-02-26T01:18:44;15.10;42.20
2439;DHT22;14509;47.992;7.848;2024-02-26T01:20:47;15.10;42.30
2439;DHT22;14509;47.992;7.848;2024-02-26T01:22:49;15.10;42.20
2439;DHT22;14509;47.992;7.848;2024-02-26T01:24:51;15.10;42.20
2439;DHT22;14509;47.992;7.848;2024-02-26T01:26:53;15.10;42.10
2439;DHT22;14509;47.992;7.848;2024-02-26T01:28:55;15.00;41.90
2439;DHT22;14509;47.992;7.848;2024-02-26T01:30:56;15.00;42.10
2439;DHT22;14509;47.992;7.848;2024-02-26T01:32:59;15.00;42.30
2439;DHT22;14509;47.992;7.848;2024-02-26T01:35:00;15.00;42.40
2439;DHT22;14509;47.992;7.848;2024-02-26T01:37:05;15.00;42.40
2439;DHT22;14509;47.992;7.848;2024-02-26T01:39:06;15.20;42.40
2439;DHT22;14509;47.992;7.848;2024-02-26T01:41:13;15.00;41.90
2439;DHT22;14509;47.992;7.848;2024-02-26T01:43:15;14.90;41.80
2439;DHT22;14509;47.992;7.848;2024-02-26T01:45:17;14.90;41.80
2439;DHT22;14509;47.992;7.848;2024-02-26T01:47:23;14.90;41.80
2439;DHT22;14509;47.992;7.848;2024-02-26T01:49:25;14.90;41.60
2439;DHT22;14509;47.992;7.848;2024-02-26T01:51:27;15.40;42.50
2439;DHT22;14509;47.992;7.848;2024-02-26T01:53:30;14.90;41.90
2439;DHT22;14509;47.992;7.848;2024-02-26T01:55:32;14.90;41.60
2439;DHT22;14509;47.992;7.848;2024-02-26T01:57:34;14.90;41.60
2439;DHT22;14509;47.992;7.848;2024-02-26T01:59:36;14.90;41.40
2439;DHT22;14509;47.992;7.848;2024-02-26T02:01:39;14.90;41.30
2439;DHT22;14509;47.992;7.848;2024-02-26T02:03:43;15.00;41.50
2439;DHT22;14509;47.992;7.848;2024-02-26T02:05:44;15.10;41.50
2439;DHT22;14509;47.992;7.848;2024-02-26T02:07:46;14.90;41.30
2439;DHT22;14509;47.992;7.848;2024-02-26T02:09:50;15.10;41.00
2439;DHT22;14509;47.992;7.848;2024-02-26T02:11:52;15.20;40.90
2439;DHT22;14509;47.992;7.848;2024-02-26T02:13:55;15.10;41.00
2439;DHT22;14509;47.992;7.848;2024-02-26T02:15:56;15.10;41.20
2439;DHT22;14509;47.992;7.848;2024-02-26T02:17:58;15.10;41.20
2439;DHT22;14509;47.992;7.848;2024-02-26T02:20:00;15.10;40.80
2439;DHT22;14509;47.992;7.848;2024-02-26T02:22:04;15.10;40.70
2439;DHT22;14509;47.992;7.848;2024-02-26T02:24:06;15.20;40.80
2439;DHT22;14509;47.992;7.848;2024-02-26T02:26:08;15.10;40.80
2439;DHT22;14509;47.992;7.848;2024-02-26T02:28:10;15.10;41.20
2439;DHT22;14509;47.992;7.848;2024-02-26T02:30:12;15.10;41.60
2439;DHT22;14509;47.992;7.848;2024-02-26T02:32:16;15.10;41.60
2439;DHT22;14509;47.992;7.848;2024-02-26T02:34:18;15.10;42.30
2439;DHT22;14509;47.992;7.848;2024-02-26T02:36:20;15.10;42.60
2439;DHT22;14509;47.992;7.848;2024-02-26T02:38:23;15.10;43.20
2439;DHT22;14509;47.992;7.848;2024-02-26T02:40:26;15.00;43.40
2439;DHT22;14509;47.992;7.848;2024-02-26T02:42:28;14.90;43.60
2439;DHT22;14509;47.992;7.848;2024-02-26T02:44:30;14.90;44.40
2439;DHT22;14509;47.992;7.848;2024-02-26T02:46:31;14.90;45.00
2439;DHT22;14509;47.992;7.848;2024-02-26T02:48:35;14.70;45.60
2439;DHT22;14509;47.992;7.848;2024-02-26T02:50:37;14.70;46.10
2439;DHT22;14509;47.992;7.848;2024-02-26T02:52:39;14.60;46.40
2439;DHT22;14509;47.992;7.848;2024-02-26T02:54:42;14.60;46.50
2439;DHT22;14509;47.992;7.848;2024-02-26T02:56:43;14.50;46.60
2439;DHT22;14509;47.992;7.848;2024-02-26T02:58:44;14.50;46.90
2439;DHT22;14509;47.992;7.848;2024-02-26T03:00:46;14.40;47.20
2439;DHT22;14509;47.992;7.848;2024-02-26T03:02:48;14.30;47.80
2439;DHT22;14509;47.992;7.848;2024-02-26T03:04:50;14.30;47.70
2439;DHT22;14509;47.992;7.848;2024-02-26T03:06:52;14.20;48.10
2439;DHT22;14509;47.992;7.848;2024-02-26T03:08:54;14.20;48.20
2439;DHT22;14509;47.992;7.848;2024-02-26T03:10:58;14.20;48.30
2439;DHT22;14509;47.992;7.848;2024-02-26T03:12:59;14.20;48.30
2439;DHT22;14509;47.992;7.848;2024-02-26T03:15:01;14.10;48.40
2439;DHT22;14509;47.992;7.848;2024-02-26T03:17:03;14.10;48.60
2439;DHT22;14509;47.992;7.848;2024-02-26T03:19:04;14.10;48.90
2439;DHT22;14509;47.992;7.848;2024-02-26T03:21:06;14.10;49.00
2439;DHT22;14509;47.992;7.848;2024-02-26T03:23:08;14.00;49.00
2439;DHT22;14509;47.992;7.848;2024-02-26T03:25:13;14.00;49.30
2439;DHT22;14509;47.992;7.848;2024-02-26T03:27:15;14.00;49.40
2439;DHT22;14509;47.992;7.848;2024-02-26T03:29:17;13.90;49.50
2439;DHT22;14509;47.992;7.848;2024-02-26T03:31:19;13.90;49.80
2439;DHT22;14509;47.992;7.848;2024-02-26T03:33:22;13.90;50.30
2439;DHT22;14509;47.992;7.848;2024-02-26T03:35:23;13.90;50.50
2439;DHT22;14509;47.992;7.848;2024-02-26T03:37:24;13.90;50.60
2439;DHT22;14509;47.992;7.848;2024-02-26T03:39:26;13.90;50.70
2439;DHT22;14509;47.992;7.848;2024-02-26T03:41:28;13.90;50.90
2439;DHT22;14509;47.992;7.848;2024-02-26T03:43:31;13.90;51.10
2439;DHT22;14509;47.992;7.848;2024-02-26T03:45:34;13.80;51.30
2439;DHT22;14509;47.992;7.848;2024-02-26T03:47:37;13.80;51.60
2439;DHT22;14509;47.992;7.848;2024-02-26T03:49:40;13.80;51.80
2439;DHT22;14509;47.992;7.848;2024-02-26T03:51:40;13.80;51.90
2439;DHT22;14509;47.992;7.848;2024-02-26T03:53:42;13.80;52.10
2439;DHT22;14509;47.992;7.848;2024-02-26T03:55:44;14.60;52.80
2439;DHT22;14509;47.992;7.848;2024-02-26T03:57:46;13.80;52.10
2439;DHT22;14509;47.992;7.848;2024-02-26T03:59:48;13.70;52.00
2439;DHT22;14509;47.992;7.848;2024-02-26T04:01:50;13.90;52.20
2439;DHT22;14509;47.992;7.848;2024-02-26T04:03:52;13.90;52.20
2439;DHT22;14509;47.992;7.848;2024-02-26T04:05:54;14.00;52.30
2439;DHT22;14509;47.992;7.848;2024-02-26T04:07:56;13.90;52.20
2439;DHT22;14509;47.992;7.848;2024-02-26T04:09:57;13.90;52.40
2439;DHT22;14509;47.992;7.848;2024-02-26T04:11:58;13.70;52.80
2439;DHT22;14509;47.992;7.848;2024-02-26T04:14:00;13.80;52.40
2439;DHT22;14509;47.992;7.848;2024-02-26T04:16:05;13.80;52.60
2439;DHT22;14509;47.992;7.848;2024-02-26T04:18:07;13.80;52.70
2439;DHT22;14509;47.992;7.848;2024-02-26T04:20:13;13.80;52.80
2439;DHT22;14509;47.992;7.848;2024-02-26T04:22:16;13.80;52.80
2439;DHT22;14509;47.992;7.848;2024-02-26T04:24:18;13.80;52.80
2439;DHT22;14509;47.992;7.848;2024-02-26T04:26:19;13.90;53.00
2439;DHT22;14509;47.992;7.848;2024-02-26T04:28:21;13.80;53.00
2439;DHT22;14509;47.992;7.848;2024-02-26T04:30:26;13.80;53.10
2439;DHT22;14509;47.992;7.848;2024-02-26T04:32:29;13.80;53.30
2439;DHT22;14509;47.992;7.848;2024-02-26T04:34:30;13.80;53.50
2439;DHT22;14509;47.992;7.848;2024-02-26T04:36:32;13.80;53.70
2439;DHT22;14509;47.992;7.848;2024-02-26T04:38:34;13.80;53.80
2439;DHT22;14509;47.992;7.848;2024-02-26T04:40:36;13.90;54.00
2439;DHT22;14509;47.992;7.848;2024-02-26T04:42:38;13.70;53.90
2439;DHT22;14509;47.992;7.848;2024-02-26T04:44:40;13.70;54.00
2439;DHT22;14509;47.992;7.848;2024-02-26T04:46:42;13.80;54.20
2439;DHT22;14509;47.992;7.848;2024-02-26T04:48:45;13.70;54.20
2439;DHT22;14509;47.992;7.848;2024-02-26T04:50:47;13.60;54.20
2439;DHT22;14509;47.992;7.848;2024-02-26T04:52:49;13.70;54.30
2439;DHT22;14509;47.992;7.848;2024-02-26T04:54:50;13.70;54.40
2439;DHT22;14509;47.992;7.848;2024-02-26T04:56:52;13.70;54.40
2439;DHT22;14509;47.992;7.848;2024-02-26T04:58:53;13.70;54.50
2439;DHT22;14509;47.992;7.848;2024-02-26T05:00:55;13.70;54.60
2439;DHT22;14509;47.992;7.848;2024-02-26T05:02:57;13.70;54.70
2439;DHT22;14509;47.992;7.848;2024-02-26T05:05:00;13.60;54.80
2439;DHT22;14509;47.992;7.848;2024-02-26T05:07:03;13.60;55.00
2439;DHT22;14509;47.992;7.848;2024-02-26T05:09:05;13.60;55.00
2439;DHT22;14509;47.992;7.848;2024-02-26T05:11:07;13.60;55.00
2439;DHT22;14509;47.992;7.848;2024-02-26T05:13:09;13.50;55.20
2439;DHT22;14509;47.992;7.848;2024-02-26T05:15:10;13.50;55.80
2439;DHT22;14509;47.992;7.848;2024-02-26T05:17:18;13.50;55.10
2439;DHT22;14509;47.992;7.848;2024-02-26T05:19:20;13.50;55.00
2439;DHT22;14509;47.992;7.848;2024-02-26T05:21:23;13.50;55.00
2439;DHT22;14509;47.992;7.848;2024-02-26T05:23:26;13.40;54.80
2439;DHT22;14509;47.992;7.848;2024-02-26T05:25:28;13.40;54.80
2439;DHT22;14509;47.992;7.848;2024-02-26T05:27:30;13.40;54.80
2439;DHT22;14509;47.992;7.848;2024-02-26T05:29:32;13.40;54.70
2439;DHT22;14509;47.992;7.848;2024-02-26T05:31:33;13.40;54.70
2439;DHT22;14509;47.992;7.848;2024-02-26T05:33:35;13.30;54.50
2439;DHT22;14509;47.992;7.848;2024-02-26T05:35:37;13.40;54.50
2439;DHT22;14509;47.992;7.848;2024-02-26T05:37:40;13.30;54.40
2439;DHT22;14509;47.992;7.848;2024-02-26T05:39:42;13.30;54.30
2439;DHT22;14509;47.992;7.848;2024-02-26T05:41:44;13.30;54.20
2439;DHT22;14509;47.992;7.848;2024-02-26T05:43:45;13.20;54.00
2439;DHT22;14509;47.992;7.848;2024-02-26T05:45:47;13.30;54.10
2439;DHT22;14509;47.992;7.848;2024-02-26T05:47:49;13.30;54.00
2439;DHT22;14509;47.992;7.848;2024-02-26T05:49:51;13.30;53.90
2439;DHT22;14509;47.992;7.848;2024-02-26T05:51:53;13.30;53.80
2439;DHT22;14509;47.992;7.848;2024-02-26T05:53:56;13.20;54.00
2439;DHT22;14509;47.992;7.848;2024-02-26T05:55:58;13.20;54.10
2439;DHT22;14509;47.992;7.848;2024-02-26T05:58:00;13.20;53.70
2439;DHT22;14509;47.992;7.848;2024-02-26T06:00:02;13.10;53.40
2439;DHT22;14509;47.992;7.848;2024-02-26T06:02:12;13.10;53.20
2439;DHT22;14509;47.992;7.848;2024-02-26T06:04:14;13.10;53.30
2439;DHT22;14509;47.992;7.848;2024-02-26T06:06:17;13.20;53.10
2439;DHT22;14509;47.992;7.848;2024-02-26T06:08:19;13.20;53.00
2439;DHT22;14509;47.992;7.848;2024-02-26T06:10:22;13.30;53.10
2439;DHT22;14509;47.992;7.848;2024-02-26T06:12:24;13.40;53.00
2439;DHT22;14509;47.992;7.848;2024-02-26T06:14:27;13.40;52.60
2439;DHT22;14509;47.992;7.848;2024-02-26T06:16:28;13.60;52.60
2439;DHT22;14509;47.992;7.848;2024-02-26T06:18:30;13.50;52.60
2439;DHT22;14509;47.992;7.848;2024-02-26T06:20:32;13.50;52.60
2439;DHT22;14509;47.992;7.848;2024-02-26T06:22:34;13.60;52.50
2439;DHT22;14509;47.992;7.848;2024-02-26T06:24:36;13.60;52.60
2439;DHT22;14509;47.992;7.848;2024-02-26T06:26:39;13.60;52.50
2439;DHT22;14509;47.992;7.848;2024-02-26T06:28:41;13.70;52.40
2439;DHT22;14509;47.992;7.848;2024-02-26T06:30:43;13.70;52.40
2439;DHT22;14509;47.992;7.848;2024-02-26T06:32:45;13.70;52.30
2439;DHT22;14509;47.992;7.848;2024-02-26T06:34:47;13.70;52.40
2439;DHT22;14509;47.992;7.848;2024-02-26T06:36:49;13.80;52.40
2439;DHT22;14509;47.992;7.848;2024-02-26T06:38:51;13.80;52.30
2439;DHT22;14509;47.992;7.848;2024-02-26T06:40:54;13.90;52.40
2439;DHT22;14509;47.992;7.848;2024-02-26T06:42:58;13.90;52.20
2439;DHT22;14509;47.992;7.848;2024-02-26T06:44:59;13.90;52.20
2439;DHT22;14509;47.992;7.848;2024-02-26T06:47:01;13.90;52.30
2439;DHT22;14509;47.992;7.848;2024-02-26T06:49:04;13.90;52.50
2439;DHT22;14509;47.992;7.848;2024-02-26T06:51:06;13.90;52.60
2439;DHT22;14509;47.992;7.848;2024-02-26T06:53:08;13.80;52.70
2439;DHT22;14509;47.992;7.848;2024-02-26T06:55:09;13.80;52.70
2439;DHT22;14509;47.992;7.848;2024-02-26T06:57:11;13.80;52.90
2439;DHT22;14509;47.992;7.848;2024-02-26T06:59:14;13.80;52.90
2439;DHT22;14509;47.992;7.848;2024-02-26T07:01:15;13.80;52.20
2439;DHT22;14509;47.992;7.848;2024-02-26T07:03:17;13.80;52.00
2439;DHT22;14509;47.992;7.848;2024-02-26T07:05:19;13.70;51.80
2439;DHT22;14509;47.992;7.848;2024-02-26T07:07:21;13.70;51.90
2439;DHT22;14509;47.992;7.848;2024-02-26T07:09:24;13.80;51.90
2439;DHT22;14509;47.992;7.848;2024-02-26T07:11:26;13.80;51.70
2439;DHT22;14509;47.992;7.848;2024-02-26T07:13:27;13.90;51.90
2439;DHT22;14509;47.992;7.848;2024-02-26T07:15:31;13.80;52.30
2439;DHT22;14509;47.992;7.848;2024-02-26T07:17:34;13.80;52.30
2439;DHT22;14509;47.992;7.848;2024-02-26T07:19:35;13.90;52.40
2439;DHT22;14509;47.992;7.848;2024-02-26T07:21:37;13.90;52.40
2439;DHT22;14509;47.992;7.848;2024-02-26T07:23:40;14.00;52.50
2439;DHT22;14509;47.992;7.848;2024-02-26T07:25:42;14.00;52.40
2439;DHT22;14509;47.992;7.848;2024-02-26T07:27:45;14.00;52.20
2439;DHT22;14509;47.992;7.848;2024-02-26T07:29:46;14.00;52.00
2439;DHT22;14509;47.992;7.848;2024-02-26T07:31:50;14.10;52.00
2439;DHT22;14509;47.992;7.848;2024-02-26T07:33:52;14.10;51.90
2439;DHT22;14509;47.992;7.848;2024-02-26T07:35:53;14.10;51.80
2439;DHT22;14509;47.992;7.848;2024-02-26T07:37:54;14.10;51.90
2439;DHT22;14509;47.992;7.848;2024-02-26T07:39:56;14.10;51.80
2439;DHT22;14509;47.992;7.848;2024-02-26T07:41:57;14.20;51.70
2439;DHT22;14509;47.992;7.848;2024-02-26T07:43:59;14.20;51.70
2439;DHT22;14509;47.992;7.848;2024-02-26T07:46:00;14.40;51.70
2439;DHT22;14509;47.992;7.848;2024-02-26T07:48:03;14.30;51.50
2439;DHT22;14509;47.992;7.848;2024-02-26T07:50:06;14.30;51.40
2439;DHT22;14509;47.992;7.848;2024-02-26T07:52:08;14.40;51.50
2439;DHT22;14509;47.992;7.848;2024-02-26T07:54:10;14.50;51.60
2439;DHT22;14509;47.992;7.848;2024-02-26T07:56:12;14.40;51.40
2439;DHT22;14509;47.992;7.848;2024-02-26T07:58:12;14.60;51.30
2439;DHT22;14509;47.992;7.848;2024-02-26T08:00:15;14.60;50.90
2439;DHT22;14509;47.992;7.848;2024-02-26T08:02:17;14.70;51.00
2439;DHT22;14509;47.992;7.848;2024-02-26T08:04:20;14.80;50.90
2439;DHT22;14509;47.992;7.848;2024-02-26T08:06:21;14.90;50.70
2439;DHT22;14509;47.992;7.848;2024-02-26T08:08:23;15.00;50.40
2439;DHT22;14509;47.992;7.848;2024-02-26T08:10:24;15.00;50.20
2439;DHT22;14509;47.992;7.848;2024-02-26T08:12:25;15.10;50.10
2439;DHT22;14509;47.992;7.848;2024-02-26T08:14:27;15.10;49.90
2439;DHT22;14509;47.992;7.848;2024-02-26T08:16:29;15.10;49.90
2439;DHT22;14509;47.992;7.848;2024-02-26T08:18:30;15.10;50.00
2439;DHT22;14509;47.992;7.848;2024-02-26T08:20:33;15.10;50.10
2439;DHT22;14509;47.992;7.848;2024-02-26T08:22:35;15.20;50.30
2439;DHT22;14509;47.992;7.848;2024-02-26T08:24:37;15.30;50.30
2439;DHT22;14509;47.992;7.848;2024-02-26T08:26:39;15.40;50.10
2439;DHT22;14509;47.992;7.848;2024-02-26T08:28:41;15.60;50.40
2439;DHT22;14509;47.992;7.848;2024-02-26T08:30:42;15.70;49.50
2439;DHT22;14509;47.992;7.848;2024-02-26T08:32:45;15.70;49.30
2439;DHT22;14509;47.992;7.848;2024-02-26T08:34:47;15.80;49.20
2439;DHT22;14509;47.992;7.848;2024-02-26T08:36:50;15.80;49.10
2439;DHT22;14509;47.992;7.848;2024-02-26T08:38:52;15.80;49.00
2439;DHT22;14509;47.992;7.848;2024-02-26T08:40:54;15.90;49.20
2439;DHT22;14509;47.992;7.848;2024-02-26T08:42:55;16.00;48.90
2439;DHT22;14509;47.992;7.848;2024-02-26T08:44:58;16.10;48.60
2439;DHT22;14509;47.992;7.848;2024-02-26T08:47:00;16.20;48.40
2439;DHT22;14509;47.992;7.848;2024-02-26T08:49:03;16.40;47.90
2439;DHT22;14509;47.992;7.848;2024-02-26T08:51:06;16.60;47.60
2439;DHT22;14509;47.992;7.848;2024-02-26T08:53:09;16.70;47.20
2439;DHT22;14509;47.992;7.848;2024-02-26T08:55:10;16.90;47.10
2439;DHT22;14509;47.992;7.848;2024-02-26T08:57:14;17.10;46.60
2439;DHT22;14509;47.992;7.848;2024-02-26T08:59:15;17.20;46.30
2439;DHT22;14509;47.992;7.848;2024-02-26T09:01:22;17.40;46.10
2439;DHT22;14509;47.992;7.848;2024-02-26T09:03:25;17.50;45.80
2439;DHT22;14509;47.992;7.848;2024-02-26T09:05:26;17.50;45.40
2439;DHT22;14509;47.992;7.848;2024-02-26T09:07:27;17.60;45.40
2439;DHT22;14509;47.992;7.848;2024-02-26T09:09:30;17.70;44.90
2439;DHT22;14509;47.992;7.848;2024-02-26T09:11:32;17.80;44.50
2439;DHT22;14509;47.992;7.848;2024-02-26T09:13:34;17.80;44.20
2439;DHT22;14509;47.992;7.848;2024-02-26T09:15:36;17.90;44.40
2439;DHT22;14509;47.992;7.848;2024-02-26T09:17:38;18.00;44.40
2439;DHT22;14509;47.992;7.848;2024-02-26T09:19:39;18.10;44.30
2439;DHT22;14509;47.992;7.848;2024-02-26T09:21:43;18.20;44.20
2439;DHT22;14509;47.992;7.848;2024-02-26T09:23:44;18.30;44.10
2439;DHT22;14509;47.992;7.848;2024-02-26T09:25:48;18.50;43.80
2439;DHT22;14509;47.992;7.848;2024-02-26T09:27:49;18.60;43.50
2439;DHT22;14509;47.992;7.848;2024-02-26T09:29:51;18.70;43.50
2439;DHT22;14509;47.992;7.848;2024-02-26T09:31:53;18.80;43.30
2439;DHT22;14509;47.992;7.848;2024-02-26T09:33:55;18.80;43.30
2439;DHT22;14509;47.992;7.848;2024-02-26T09:35:57;18.80;43.60
2439;DHT22;14509;47.992;7.848;2024-02-26T09:38:00;18.80;44.10
2439;DHT22;14509;47.992;7.848;2024-02-26T09:40:00;18.90;43.90
2439;DHT22;14509;47.992;7.848;2024-02-26T09:42:05;19.00;43.80
2439;DHT22;14509;47.992;7.848;2024-02-26T09:44:10;19.10;43.60
2439;DHT22;14509;47.992;7.848;2024-02-26T09:46:13;19.10;43.40
2439;DHT22;14509;47.992;7.848;2024-02-26T09:48:17;19.10;43.10
2439;DHT22;14509;47.992;7.848;2024-02-26T09:50:20;19.10;43.10
2439;DHT22;14509;47.992;7.848;2024-02-26T09:52:24;19.00;43.00
2439;DHT22;14509;47.992;7.848;2024-02-26T09:54:27;19.00;43.00
2439;DHT22;14509;47.992;7.848;2024-02-26T09:56:29;19.00;43.00
2439;DHT22;14509;47.992;7.848;2024-02-26T09:58:34;18.90;42.90
2439;DHT22;14509;47.992;7.848;2024-02-26T10:00:37;18.90;43.30
2439;DHT22;14509;47.992;7.848;2024-02-26T10:02:39;19.00;43.60
2439;DHT22;14509;47.992;7.848;2024-02-26T10:04:42;19.00;43.40
2439;DHT22;14509;47.992;7.848;2024-02-26T10:06:45;19.10;43.70
2439;DHT22;14509;47.992;7.848;2024-02-26T10:08:47;19.20;44.50
2439;DHT22;14509;47.992;7.848;2024-02-26T10:10:49;19.40;44.20
2439;DHT22;14509;47.992;7.848;2024-02-26T10:12:51;19.40;43.60
2439;DHT22;14509;47.992;7.848;2024-02-26T10:14:55;19.50;43.60
2439;DHT22;14509;47.992;7.848;2024-02-26T10:16:58;19.60;43.30
2439;DHT22;14509;47.992;7.848;2024-02-26T10:19:01;19.70;43.10
2439;DHT22;14509;47.992;7.848;2024-02-26T10:21:04;19.80;43.00
2439;DHT22;14509;47.992;7.848;2024-02-26T10:23:05;19.90;43.20
2439;DHT22;14509;47.992;7.848;2024-02-26T10:25:08;20.00;43.50
2439;DHT22;14509;47.992;7.848;2024-02-26T10:27:10;20.00;43.40
2439;DHT22;14509;47.992;7.848;2024-02-26T10:29:12;20.10;43.70
2439;DHT22;14509;47.992;7.848;2024-02-26T10:31:15;20.10;43.90
2439;DHT22;14509;47.992;7.848;2024-02-26T10:33:17;20.20;43.70
2439;DHT22;14509;47.992;7.848;2024-02-26T10:35:19;20.20;43.90
2439;DHT22;14509;47.992;7.848;2024-02-26T10:37:22;20.20;43.80
2439;DHT22;14509;47.992;7.848;2024-02-26T10:39:25;20.20;43.90
2439;DHT22;14509;47.992;7.848;2024-02-26T10:41:27;20.10;43.90
2439;DHT22;14509;47.992;7.848;2024-02-26T10:43:29;20.10;44.40
2439;DHT22;14509;47.992;7.848;2024-02-26T10:45:32;20.00;44.80
2439;DHT22;14509;47.992;7.848;2024-02-26T10:47:35;20.00;44.90
2439;DHT22;14509;47.992;7.848;2024-02-26T10:49:37;20.10;45.00
2439;DHT22;14509;47.992;7.848;2024-02-26T10:51:44;20.10;43.50
2439;DHT22;14509;47.992;7.848;2024-02-26T10:53:48;20.30;43.60
2439;DHT22;14509;47.992;7.848;2024-02-26T10:55:57;20.30;42.70
2439;DHT22;14509;47.992;7.848;2024-02-26T10:58:01;20.20;42.30
2439;DHT22;14509;47.992;7.848;2024-02-26T11:00:04;20.30;42.40
2439;DHT22;14509;47.992;7.848;2024-02-26T11:02:08;20.30;42.50
2439;DHT22;14509;47.992;7.848;2024-02-26T11:04:12;20.30;42.80
2439;DHT22;14509;47.992;7.848;2024-02-26T11:06:15;20.40;42.30
2439;DHT22;14509;47.992;7.848;2024-02-26T11:08:18;20.50;42.10
2439;DHT22;14509;47.992;7.848;2024-02-26T11:10:21;20.60;42.00
2439;DHT22;14509;47.992;7.848;2024-02-26T11:12:26;20.70;41.50
2439;DHT22;14509;47.992;7.848;2024-02-26T11:14:29;20.80;41.00
2439;DHT22;14509;47.992;7.848;2024-02-26T11:16:30;20.90;41.10
2439;DHT22;14509;47.992;7.848;2024-02-26T11:18:34;20.90;40.30
2439;DHT22;14509;47.992;7.848;2024-02-26T11:20:38;21.10;40.30
2439;DHT22;14509;47.992;7.848;2024-02-26T11:22:41;21.30;40.20
2439;DHT22;14509;47.992;7.848;2024-02-26T11:24:44;21.50;40.60
2439;DHT22;14509;47.992;7.848;2024-02-26T11:26:48;21.60;40.10
2439;DHT22;14509;47.992;7.848;2024-02-26T11:28:53;21.80;40.00
2439;DHT22;14509;47.992;7.848;2024-02-26T11:30:57;21.90;39.40
2439;DHT22;14509;47.992;7.848;2024-02-26T11:33:00;22.00;39.40
2439;DHT22;14509;47.992;7.848;2024-02-26T11:35:04;22.10;39.20
2439;DHT22;14509;47.992;7.848;2024-02-26T11:37:14;22.20;39.10
2439;DHT22;14509;47.992;7.848;2024-02-26T11:39:16;22.20;38.80
2439;DHT22;14509;47.992;7.848;2024-02-26T11:41:18;22.20;38.50
2439;DHT22;14509;47.992;7.848;2024-02-26T11:43:23;22.30;38.50
2439;DHT22;14509;47.992;7.848;2024-02-26T11:45:47;22.20;38.60
2439;DHT22;14509;47.992;7.848;2024-02-26T11:47:56;22.10;38.90
2439;DHT22;14509;47.992;7.848;2024-02-26T11:49:58;22.10;39.30
2439;DHT22;14509;47.992;7.848;2024-02-26T11:52:00;22.10;40.00
2439;DHT22;14509;47.992;7.848;2024-02-26T11:54:02;22.00;40.30
2439;DHT22;14509;47.992;7.848;2024-02-26T11:56:28;22.00;40.40
2439;DHT22;14509;47.992;7.848;2024-02-26T11:58:31;22.00;40.70
2439;DHT22;14509;47.992;7.848;2024-02-26T12:00:32;21.90;40.20
2439;DHT22;14509;47.992;7.848;2024-02-26T12:02:44;21.90;40.40
2439;DHT22;14509;47.992;7.848;2024-02-26T12:04:46;21.80;40.50
2439;DHT22;14509;47.992;7.848;2024-02-26T12:06:51;21.80;40.80
2439;DHT22;14509;47.992;7.848;2024-02-26T12:08:53;21.80;40.60
2439;DHT22;14509;47.992;7.848;2024-02-26T12:10:56;21.80;40.80
2439;DHT22;14509;47.992;7.848;2024-02-26T12:12:59;21.80;40.40
2439;DHT22;14509;47.992;7.848;2024-02-26T12:15:02;21.80;40.90
2439;DHT22;14509;47.992;7.848;2024-02-26T12:17:04;21.70;41.40
2439;DHT22;14509;47.992;7.848;2024-02-26T12:19:08;21.70;41.50
2439;DHT22;14509;47.992;7.848;2024-02-26T12:21:10;21.70;41.50
2439;DHT22;14509;47.992;7.848;2024-02-26T12:23:15;21.70;41.60
2439;DHT22;14509;47.992;7.848;2024-02-26T12:25:22;21.90;41.80
2439;DHT22;14509;47.992;7.848;2024-02-26T12:27:26;21.70;42.00
2439;DHT22;14509;47.992;7.848;2024-02-26T12:29:28;21.80;41.70
2439;DHT22;14509;47.992;7.848;2024-02-26T12:31:30;21.70;41.70
2439;DHT22;14509;47.992;7.848;2024-02-26T12:33:32;21.70;41.30
2439;DHT22;14509;47.992;7.848;2024-02-26T12:35:34;21.70;41.20
2439;DHT22;14509;47.992;7.848;2024-02-26T12:37:37;21.70;41.20
2439;DHT22;14509;47.992;7.848;2024-02-26T12:39:39;21.70;41.30
2439;DHT22;14509;47.992;7.848;2024-02-26T12:41:41;21.70;41.30
2439;DHT22;14509;47.992;7.848;2024-02-26T12:43:51;21.70;41.20
2439;DHT22;14509;47.992;7.848;2024-02-26T12:45:53;21.80;41.10
2439;DHT22;14509;47.992;7.848;2024-02-26T12:47:55;21.70;40.90
2439;DHT22;14509;47.992;7.848;2024-02-26T12:49:57;21.80;41.00
2439;DHT22;14509;47.992;7.848;2024-02-26T12:51:58;21.90;41.00
2439;DHT22;14509;47.992;7.848;2024-02-26T12:54:03;21.90;40.60
2439;DHT22;14509;47.992;7.848;2024-02-26T12:56:06;21.90;40.60
2439;DHT22;14509;47.992;7.848;2024-02-26T12:58:08;22.00;40.90
2439;DHT22;14509;47.992;7.848;2024-02-26T13:00:12;22.00;40.40
2439;DHT22;14509;47.992;7.848;2024-02-26T13:02:15;22.10;40.30
2439;DHT22;14509;47.992;7.848;2024-02-26T13:04:18;22.20;40.20
2439;DHT22;14509;47.992;7.848;2024-02-26T13:06:20;22.30;40.00